sensor_id;sensor_type;location;lat;lon;timestamp;P1;durP1;ratioP1;P2;durP2;ratioP2
25127;SDS011;13107;51.304;6.866;2023-04-25T00:02:33;12.27;;;4.53;;
25127;SDS011;13107;51.304;6.866;2023-04-25T00:06:36;14.07;;;4.40;;
25127;SDS011;13107;51.304;6.866;2023-04-25T00:10:38;17.40;;;4.82;;
25127;SDS011;13107;51.304;6.866;2023-04-25T00:14:40;14.32;;;4.47;;
25127;SDS011;13107;51.304;6.866;2023-04-25T00:18:42;17.02;;;4.30;;
25127;SDS011;13107;51.304;6.866;2023-04-25T00:22:44;18.55;;;4.87;;
25127;SDS011;13107;51.304;6.866;2023-04-25T00:26:46;20.92;;;4.93;;
25127;SDS011;13107;51.304;6.866;2023-04-25T00:30:48;16.35;;;4.22;;
25127;SDS011;13107;51.304;6.866;2023-04-25T00:34:50;14.23;;;5.05;;
25127;SDS011;13107;51.304;6.866;2023-04-25T00:38:52;18.17;;;4.72;;
25127;SDS011;13107;51.304;6.866;2023-04-25T00:42:55;12.63;;;4.00;;
25127;SDS011;13107;51.304;6.866;2023-04-25T00:46:56;13.40;;;4.10;;
25127;SDS011;13107;51.304;6.866;2023-04-25T00:50:59;16.00;;;3.83;;
25127;SDS011;13107;51.304;6.866;2023-04-25T00:55:01;13.20;;;4.20;;
25127;SDS011;13107;51.304;6.866;2023-04-25T00:59:02;13.18;;;4.28;;
25127;SDS011;13107;51.304;6.866;2023-04-25T01:03:04;11.90;;;4.15;;
25127;SDS011;13107;51.304;6.866;2023-04-25T01:07:06;11.73;;;4.03;;
25127;SDS011;13107;51.304;6.866;2023-04-25T01:11:09;9.90;;;3.80;;
25127;SDS011;13107;51.304;6.866;2023-04-25T01:15:11;13.20;;;3.78;;
25127;SDS011;13107;51.304;6.866;2023-04-25T01:19:12;10.45;;;3.95;;
25127;SDS011;13107;51.304;6.866;2023-04-25T01:23:18;22.92;;;5.05;;
25127;SDS011;13107;51.304;6.866;2023-04-25T01:27:23;11.07;;;3.42;;
25127;SDS011;13107;51.304;6.866;2023-04-25T01:31:26;8.38;;;3.37;;
25127;SDS011;13107;51.304;6.866;2023-04-25T01:35:29;10.95;;;3.42;;
25127;SDS011;13107;51.304;6.866;2023-04-25T01:39:31;12.15;;;3.45;;
25127;SDS011;13107;51.304;6.866;2023-04-25T01:43:32;13.88;;;3.62;;
25127;SDS011;13107;51.304;6.866;2023-04-25T01:47:34;11.75;;;4.03;;
25127;SDS011;13107;51.304;6.866;2023-04-25T01:51:36;12.82;;;3.80;;
25127;SDS011;13107;51.304;6.866;2023-04-25T01:55:38;11.43;;;4.20;;
25127;SDS011;13107;51.304;6.866;2023-04-25T01:59:40;10.25;;;4.55;;
25127;SDS011;13107;51.304;6.866;2023-04-25T02:03:42;13.13;;;4.60;;
25127;SDS011;13107;51.304;6.866;2023-04-25T02:07:45;12.05;;;4.53;;
25127;SDS011;13107;51.304;6.866;2023-04-25T02:11:47;12.18;;;4.68;;
25127;SDS011;13107;51.304;6.866;2023-04-25T02:15:49;10.27;;;4.22;;
25127;SDS011;13107;51.304;6.866;2023-04-25T02:19:51;10.80;;;4.15;;
25127;SDS011;13107;51.304;6.866;2023-04-25T02:23:52;11.05;;;4.72;;
25127;SDS011;13107;51.304;6.866;2023-04-25T02:27:55;14.87;;;4.53;;
25127;SDS011;13107;51.304;6.866;2023-04-25T02:31:56;14.52;;;4.55;;
25127;SDS011;13107;51.304;6.866;2023-04-25T02:35:58;11.77;;;4.18;;
25127;SDS011;13107;51.304;6.866;2023-04-25T02:40:00;10.10;;;4.18;;
25127;SDS011;13107;51.304;6.866;2023-04-25T02:44:02;11.95;;;4.00;;
25127;SDS011;13107;51.304;6.866;2023-04-25T02:48:04;12.80;;;4.25;;
25127;SDS011;13107;51.304;6.866;2023-04-25T02:52:06;13.68;;;4.30;;
25127;SDS011;13107;51.304;6.866;2023-04-25T02:56:07;9.98;;;4.07;;
25127;SDS011;13107;51.304;6.866;2023-04-25T03:00:10;13.88;;;4.07;;
25127;SDS011;13107;51.304;6.866;2023-04-25T03:04:12;10.88;;;4.50;;
25127;SDS011;13107;51.304;6.866;2023-04-25T03:08:14;12.07;;;4.32;;
25127;SDS011;13107;51.304;6.866;2023-04-25T03:12:16;11.90;;;4.37;;
25127;SDS011;13107;51.304;6.866;2023-04-25T03:16:18;11.60;;;4.40;;
25127;SDS011;13107;51.304;6.866;2023-04-25T03:20:19;10.40;;;3.95;;
25127;SDS011;13107;51.304;6.866;2023-04-25T03:24:21;10.38;;;4.03;;
25127;SDS011;13107;51.304;6.866;2023-04-25T03:28:23;13.25;;;4.22;;
25127;SDS011;13107;51.304;6.866;2023-04-25T03:32:24;8.93;;;3.60;;
25127;SDS011;13107;51.304;6.866;2023-04-25T03:36:26;14.02;;;4.43;;
25127;SDS011;13107;51.304;6.866;2023-04-25T03:40:28;16.55;;;4.82;;
25127;SDS011;13107;51.304;6.866;2023-04-25T03:44:29;12.25;;;4.47;;
25127;SDS011;13107;51.304;6.866;2023-04-25T03:48:31;16.45;;;4.60;;
25127;SDS011;13107;51.304;6.866;2023-04-25T03:52:33;11.48;;;4.82;;
25127;SDS011;13107;51.304;6.866;2023-04-25T03:56:35;16.65;;;5.40;;
25127;SDS011;13107;51.304;6.866;2023-04-25T04:00:36;18.15;;;5.32;;
25127;SDS011;13107;51.304;6.866;2023-04-25T04:04:38;13.38;;;4.85;;
25127;SDS011;13107;51.304;6.866;2023-04-25T04:08:40;15.45;;;5.65;;
25127;SDS011;13107;51.304;6.866;2023-04-25T04:12:42;15.40;;;4.40;;
25127;SDS011;13107;51.304;6.866;2023-04-25T04:16:44;13.60;;;5.10;;
25127;SDS011;13107;51.304;6.866;2023-04-25T04:20:46;14.40;;;5.00;;
25127;SDS011;13107;51.304;6.866;2023-04-25T04:24:47;19.75;;;4.65;;
25127;SDS011;13107;51.304;6.866;2023-04-25T04:28:51;14.57;;;4.95;;
25127;SDS011;13107;51.304;6.866;2023-04-25T04:32:52;14.23;;;4.68;;
25127;SDS011;13107;51.304;6.866;2023-04-25T04:36:54;14.05;;;4.80;;
25127;SDS011;13107;51.304;6.866;2023-04-25T04:40:56;16.80;;;4.97;;
25127;SDS011;13107;51.304;6.866;2023-04-25T04:44:58;15.10;;;5.32;;
25127;SDS011;13107;51.304;6.866;2023-04-25T04:48:59;22.23;;;5.85;;
25127;SDS011;13107;51.304;6.866;2023-04-25T04:53:01;14.48;;;4.90;;
25127;SDS011;13107;51.304;6.866;2023-04-25T04:57:05;18.20;;;6.10;;
25127;SDS011;13107;51.304;6.866;2023-04-25T05:01:07;21.30;;;6.50;;
25127;SDS011;13107;51.304;6.866;2023-04-25T05:05:09;17.65;;;5.62;;
25127;SDS011;13107;51.304;6.866;2023-04-25T05:09:11;16.23;;;5.75;;
25127;SDS011;13107;51.304;6.866;2023-04-25T05:13:13;17.75;;;6.20;;
25127;SDS011;13107;51.304;6.866;2023-04-25T05:17:14;15.95;;;4.65;;
25127;SDS011;13107;51.304;6.866;2023-04-25T05:21:16;22.17;;;5.37;;
25127;SDS011;13107;51.304;6.866;2023-04-25T05:25:18;18.58;;;5.37;;
25127;SDS011;13107;51.304;6.866;2023-04-25T05:29:20;27.25;;;5.37;;
25127;SDS011;13107;51.304;6.866;2023-04-25T05:33:21;19.90;;;4.72;;
25127;SDS011;13107;51.304;6.866;2023-04-25T05:37:23;17.55;;;4.47;;
25127;SDS011;13107;51.304;6.866;2023-04-25T05:41:25;19.80;;;4.10;;
25127;SDS011;13107;51.304;6.866;2023-04-25T05:45:27;12.93;;;3.90;;
25127;SDS011;13107;51.304;6.866;2023-04-25T05:49:29;18.17;;;4.18;;
25127;SDS011;13107;51.304;6.866;2023-04-25T05:53:31;18.25;;;3.90;;
25127;SDS011;13107;51.304;6.866;2023-04-25T05:57:32;12.32;;;3.90;;
25127;SDS011;13107;51.304;6.866;2023-04-25T06:01:47;13.05;;;3.75;;
25127;SDS011;13107;51.304;6.866;2023-04-25T06:05:49;19.73;;;4.40;;
25127;SDS011;13107;51.304;6.866;2023-04-25T06:09:51;11.77;;;3.70;;
25127;SDS011;13107;51.304;6.866;2023-04-25T06:13:54;15.77;;;3.80;;
25127;SDS011;13107;51.304;6.866;2023-04-25T06:17:56;10.88;;;3.80;;
25127;SDS011;13107;51.304;6.866;2023-04-25T06:21:57;18.25;;;3.20;;
25127;SDS011;13107;51.304;6.866;2023-04-25T06:25:59;16.60;;;4.20;;
25127;SDS011;13107;51.304;6.866;2023-04-25T06:30:01;13.40;;;4.03;;
25127;SDS011;13107;51.304;6.866;2023-04-25T06:34:03;13.62;;;4.20;;
25127;SDS011;13107;51.304;6.866;2023-04-25T06:38:04;16.85;;;4.65;;
25127;SDS011;13107;51.304;6.866;2023-04-25T06:42:06;13.35;;;4.28;;
25127;SDS011;13107;51.304;6.866;2023-04-25T06:46:08;15.90;;;4.35;;
25127;SDS011;13107;51.304;6.866;2023-04-25T06:50:10;18.02;;;4.50;;
25127;SDS011;13107;51.304;6.866;2023-04-25T06:54:12;18.33;;;4.82;;
25127;SDS011;13107;51.304;6.866;2023-04-25T06:58:14;16.42;;;3.58;;
25127;SDS011;13107;51.304;6.866;2023-04-25T07:02:15;10.85;;;3.15;;
25127;SDS011;13107;51.304;6.866;2023-04-25T07:06:17;25.25;;;4.47;;
25127;SDS011;13107;51.304;6.866;2023-04-25T07:10:19;21.33;;;4.60;;
25127;SDS011;13107;51.304;6.866;2023-04-25T07:14:22;18.17;;;3.97;;
25127;SDS011;13107;51.304;6.866;2023-04-25T07:18:24;13.23;;;3.22;;
25127;SDS011;13107;51.304;6.866;2023-04-25T07:22:25;10.95;;;3.40;;
25127;SDS011;13107;51.304;6.866;2023-04-25T07:26:27;16.67;;;4.28;;
25127;SDS011;13107;51.304;6.866;2023-04-25T07:30:29;12.18;;;3.90;;
25127;SDS011;13107;51.304;6.866;2023-04-25T07:34:31;16.52;;;4.72;;
25127;SDS011;13107;51.304;6.866;2023-04-25T07:38:33;25.17;;;4.68;;
25127;SDS011;13107;51.304;6.866;2023-04-25T07:42:35;20.52;;;4.75;;
25127;SDS011;13107;51.304;6.866;2023-04-25T07:46:37;13.93;;;3.53;;
25127;SDS011;13107;51.304;6.866;2023-04-25T07:50:38;15.38;;;3.90;;
25127;SDS011;13107;51.304;6.866;2023-04-25T07:54:40;19.00;;;3.72;;
25127;SDS011;13107;51.304;6.866;2023-04-25T07:58:42;18.55;;;4.80;;
25127;SDS011;13107;51.304;6.866;2023-04-25T08:02:44;12.27;;;2.75;;
25127;SDS011;13107;51.304;6.866;2023-04-25T08:06:46;15.07;;;3.55;;
25127;SDS011;13107;51.304;6.866;2023-04-25T08:10:49;15.38;;;3.92;;
25127;SDS011;13107;51.304;6.866;2023-04-25T08:14:51;13.35;;;3.30;;
25127;SDS011;13107;51.304;6.866;2023-04-25T08:18:53;9.63;;;2.45;;
25127;SDS011;13107;51.304;6.866;2023-04-25T08:22:55;16.30;;;3.67;;
25127;SDS011;13107;51.304;6.866;2023-04-25T08:26:56;16.83;;;3.83;;
25127;SDS011;13107;51.304;6.866;2023-04-25T08:30:59;11.23;;;2.80;;
25127;SDS011;13107;51.304;6.866;2023-04-25T08:35:01;18.25;;;2.70;;
25127;SDS011;13107;51.304;6.866;2023-04-25T08:39:03;8.45;;;2.90;;
25127;SDS011;13107;51.304;6.866;2023-04-25T08:43:05;7.25;;;2.22;;
25127;SDS011;13107;51.304;6.866;2023-04-25T08:47:12;13.40;;;2.92;;
25127;SDS011;13107;51.304;6.866;2023-04-25T08:51:23;11.70;;;3.00;;
25127;SDS011;13107;51.304;6.866;2023-04-25T08:55:26;11.07;;;2.70;;
25127;SDS011;13107;51.304;6.866;2023-04-25T08:59:32;10.05;;;2.30;;
25127;SDS011;13107;51.304;6.866;2023-04-25T09:03:34;10.57;;;2.28;;
25127;SDS011;13107;51.304;6.866;2023-04-25T09:07:36;9.15;;;2.33;;
25127;SDS011;13107;51.304;6.866;2023-04-25T09:11:38;5.62;;;1.55;;
25127;SDS011;13107;51.304;6.866;2023-04-25T09:15:46;5.75;;;1.48;;
25127;SDS011;13107;51.304;6.866;2023-04-25T09:19:53;7.05;;;1.48;;
25127;SDS011;13107;51.304;6.866;2023-04-25T09:23:54;9.32;;;1.92;;
25127;SDS011;13107;51.304;6.866;2023-04-25T09:27:56;10.02;;;2.15;;
25127;SDS011;13107;51.304;6.866;2023-04-25T09:32:11;8.95;;;1.87;;
25127;SDS011;13107;51.304;6.866;2023-04-25T09:36:14;11.15;;;2.42;;
25127;SDS011;13107;51.304;6.866;2023-04-25T09:40:17;9.10;;;1.90;;
25127;SDS011;13107;51.304;6.866;2023-04-25T09:44:23;10.98;;;1.77;;
25127;SDS011;13107;51.304;6.866;2023-04-25T09:48:26;8.10;;;2.20;;
25127;SDS011;13107;51.304;6.866;2023-04-25T09:52:28;6.55;;;1.33;;
25127;SDS011;13107;51.304;6.866;2023-04-25T09:56:31;6.80;;;1.40;;
25127;SDS011;13107;51.304;6.866;2023-04-25T10:04:41;8.13;;;1.60;;
25127;SDS011;13107;51.304;6.866;2023-04-25T10:08:46;7.12;;;1.60;;
25127;SDS011;13107;51.304;6.866;2023-04-25T10:12:52;4.77;;;1.20;;
25127;SDS011;13107;51.304;6.866;2023-04-25T10:16:55;4.53;;;1.08;;
25127;SDS011;13107;51.304;6.866;2023-04-25T10:21:02;10.10;;;1.40;;
25127;SDS011;13107;51.304;6.866;2023-04-25T10:25:05;5.70;;;1.20;;
25127;SDS011;13107;51.304;6.866;2023-04-25T10:29:09;4.45;;;1.08;;
25127;SDS011;13107;51.304;6.866;2023-04-25T10:33:17;3.08;;;1.08;;
25127;SDS011;13107;51.304;6.866;2023-04-25T10:37:19;5.47;;;0.88;;
25127;SDS011;13107;51.304;6.866;2023-04-25T10:41:21;9.40;;;1.40;;
25127;SDS011;13107;51.304;6.866;2023-04-25T10:45:24;8.20;;;1.50;;
25127;SDS011;13107;51.304;6.866;2023-04-25T10:49:33;5.87;;;1.05;;
25127;SDS011;13107;51.304;6.866;2023-04-25T10:53:36;7.93;;;1.08;;
25127;SDS011;13107;51.304;6.866;2023-04-25T10:57:39;5.62;;;1.10;;
25127;SDS011;13107;51.304;6.866;2023-04-25T11:01:46;4.65;;;1.45;;
25127;SDS011;13107;51.304;6.866;2023-04-25T11:05:50;6.93;;;1.35;;
25127;SDS011;13107;51.304;6.866;2023-04-25T11:10:00;4.12;;;1.05;;
25127;SDS011;13107;51.304;6.866;2023-04-25T11:14:03;9.13;;;1.80;;
25127;SDS011;13107;51.304;6.866;2023-04-25T11:18:05;10.60;;;1.45;;
25127;SDS011;13107;51.304;6.866;2023-04-25T11:22:09;5.82;;;1.80;;
25127;SDS011;13107;51.304;6.866;2023-04-25T11:26:12;9.75;;;1.98;;
25127;SDS011;13107;51.304;6.866;2023-04-25T11:30:15;5.90;;;1.50;;
25127;SDS011;13107;51.304;6.866;2023-04-25T11:34:17;7.25;;;1.70;;
25127;SDS011;13107;51.304;6.866;2023-04-25T11:38:20;7.32;;;1.30;;
25127;SDS011;13107;51.304;6.866;2023-04-25T11:42:24;4.97;;;1.17;;
25127;SDS011;13107;51.304;6.866;2023-04-25T11:46:25;6.12;;;1.52;;
25127;SDS011;13107;51.304;6.866;2023-04-25T11:50:28;5.10;;;1.60;;
25127;SDS011;13107;51.304;6.866;2023-04-25T11:54:29;7.50;;;1.20;;
25127;SDS011;13107;51.304;6.866;2023-04-25T11:58:31;10.13;;;1.87;;
25127;SDS011;13107;51.304;6.866;2023-04-25T12:02:34;7.32;;;1.85;;
25127;SDS011;13107;51.304;6.866;2023-04-25T12:06:37;9.98;;;2.03;;
25127;SDS011;13107;51.304;6.866;2023-04-25T12:10:42;9.32;;;2.03;;
25127;SDS011;13107;51.304;6.866;2023-04-25T12:14:46;6.07;;;1.70;;
25127;SDS011;13107;51.304;6.866;2023-04-25T12:18:52;7.35;;;1.75;;
25127;SDS011;13107;51.304;6.866;2023-04-25T12:22:54;7.15;;;1.77;;
25127;SDS011;13107;51.304;6.866;2023-04-25T12:26:59;8.05;;;2.10;;
25127;SDS011;13107;51.304;6.866;2023-04-25T12:31:04;8.13;;;1.92;;
25127;SDS011;13107;51.304;6.866;2023-04-25T12:35:07;9.15;;;2.47;;
25127;SDS011;13107;51.304;6.866;2023-04-25T12:39:14;9.48;;;2.22;;
25127;SDS011;13107;51.304;6.866;2023-04-25T12:47:19;9.88;;;2.03;;
25127;SDS011;13107;51.304;6.866;2023-04-25T12:51:21;7.07;;;1.77;;
25127;SDS011;13107;51.304;6.866;2023-04-25T12:55:25;7.53;;;1.70;;
25127;SDS011;13107;51.304;6.866;2023-04-25T12:59:27;4.43;;;1.35;;
25127;SDS011;13107;51.304;6.866;2023-04-25T13:03:29;6.72;;;1.48;;
25127;SDS011;13107;51.304;6.866;2023-04-25T13:07:31;7.85;;;1.85;;
25127;SDS011;13107;51.304;6.866;2023-04-25T13:11:36;8.98;;;1.85;;
25127;SDS011;13107;51.304;6.866;2023-04-25T13:15:37;8.00;;;2.03;;
25127;SDS011;13107;51.304;6.866;2023-04-25T13:19:39;5.35;;;1.33;;
25127;SDS011;13107;51.304;6.866;2023-04-25T13:23:41;6.53;;;0.93;;
25127;SDS011;13107;51.304;6.866;2023-04-25T13:27:44;6.40;;;1.52;;
25127;SDS011;13107;51.304;6.866;2023-04-25T13:31:45;5.60;;;1.60;;
25127;SDS011;13107;51.304;6.866;2023-04-25T13:35:48;6.87;;;1.15;;
25127;SDS011;13107;51.304;6.866;2023-04-25T13:39:59;5.80;;;1.30;;
25127;SDS011;13107;51.304;6.866;2023-04-25T13:44:06;9.02;;;1.50;;
25127;SDS011;13107;51.304;6.866;2023-04-25T13:48:07;7.20;;;1.33;;
25127;SDS011;13107;51.304;6.866;2023-04-25T13:52:09;5.95;;;1.30;;
25127;SDS011;13107;51.304;6.866;2023-04-25T13:56:11;3.12;;;1.05;;
25127;SDS011;13107;51.304;6.866;2023-04-25T14:00:13;6.62;;;1.58;;
25127;SDS011;13107;51.304;6.866;2023-04-25T14:04:15;6.25;;;1.42;;
25127;SDS011;13107;51.304;6.866;2023-04-25T14:08:16;5.45;;;1.33;;
25127;SDS011;13107;51.304;6.866;2023-04-25T14:12:18;5.80;;;1.30;;
25127;SDS011;13107;51.304;6.866;2023-04-25T14:16:20;8.88;;;1.50;;
25127;SDS011;13107;51.304;6.866;2023-04-25T14:20:22;20.52;;;3.65;;
25127;SDS011;13107;51.304;6.866;2023-04-25T14:24:25;8.55;;;2.05;;
25127;SDS011;13107;51.304;6.866;2023-04-25T14:28:26;11.63;;;3.70;;
25127;SDS011;13107;51.304;6.866;2023-04-25T14:32:28;10.15;;;1.52;;
25127;SDS011;13107;51.304;6.866;2023-04-25T14:36:30;8.45;;;1.48;;
25127;SDS011;13107;51.304;6.866;2023-04-25T14:40:33;8.93;;;1.95;;
25127;SDS011;13107;51.304;6.866;2023-04-25T14:44:34;6.62;;;1.50;;
25127;SDS011;13107;51.304;6.866;2023-04-25T14:48:36;7.90;;;1.58;;
25127;SDS011;13107;51.304;6.866;2023-04-25T14:52:38;5.87;;;1.23;;
25127;SDS011;13107;51.304;6.866;2023-04-25T14:56:40;6.53;;;1.20;;
25127;SDS011;13107;51.304;6.866;2023-04-25T15:00:42;3.75;;;0.95;;
25127;SDS011;13107;51.304;6.866;2023-04-25T15:04:45;4.95;;;1.23;;
25127;SDS011;13107;51.304;6.866;2023-04-25T15:08:47;5.45;;;1.27;;
25127;SDS011;13107;51.304;6.866;2023-04-25T15:12:49;6.75;;;1.20;;
25127;SDS011;13107;51.304;6.866;2023-04-25T15:16:51;5.65;;;1.45;;
25127;SDS011;13107;51.304;6.866;2023-04-25T15:20:53;4.12;;;1.00;;
25127;SDS011;13107;51.304;6.866;2023-04-25T15:24:55;5.43;;;1.75;;
25127;SDS011;13107;51.304;6.866;2023-04-25T15:28:57;6.43;;;1.25;;
25127;SDS011;13107;51.304;6.866;2023-04-25T15:32:58;4.35;;;1.30;;
25127;SDS011;13107;51.304;6.866;2023-04-25T15:37:00;5.50;;;0.95;;
25127;SDS011;13107;51.304;6.866;2023-04-25T15:41:02;5.90;;;1.30;;
25127;SDS011;13107;51.304;6.866;2023-04-25T15:45:06;5.07;;;1.12;;
25127;SDS011;13107;51.304;6.866;2023-04-25T15:49:09;8.70;;;1.20;;
25127;SDS011;13107;51.304;6.866;2023-04-25T15:53:11;4.65;;;1.00;;
25127;SDS011;13107;51.304;6.866;2023-04-25T15:57:13;4.72;;;1.05;;
25127;SDS011;13107;51.304;6.866;2023-04-25T16:01:15;2.92;;;0.80;;
25127;SDS011;13107;51.304;6.866;2023-04-25T16:05:18;5.15;;;0.95;;
25127;SDS011;13107;51.304;6.866;2023-04-25T16:09:19;7.47;;;0.90;;
25127;SDS011;13107;51.304;6.866;2023-04-25T16:13:22;3.83;;;0.80;;
25127;SDS011;13107;51.304;6.866;2023-04-25T16:17:24;4.57;;;0.90;;
25127;SDS011;13107;51.304;6.866;2023-04-25T16:21:26;5.43;;;0.95;;
25127;SDS011;13107;51.304;6.866;2023-04-25T16:25:28;3.42;;;0.95;;
25127;SDS011;13107;51.304;6.866;2023-04-25T16:29:30;6.43;;;1.27;;
25127;SDS011;13107;51.304;6.866;2023-04-25T16:33:32;4.82;;;1.20;;
25127;SDS011;13107;51.304;6.866;2023-04-25T16:37:35;4.47;;;0.88;;
25127;SDS011;13107;51.304;6.866;2023-04-25T16:41:36;6.35;;;0.98;;
25127;SDS011;13107;51.304;6.866;2023-04-25T16:45:38;3.60;;;0.80;;
25127;SDS011;13107;51.304;6.866;2023-04-25T16:49:40;5.10;;;0.98;;
25127;SDS011;13107;51.304;6.866;2023-04-25T16:53:42;4.25;;;0.75;;
25127;SDS011;13107;51.304;6.866;2023-04-25T16:57:43;4.35;;;1.05;;
25127;SDS011;13107;51.304;6.866;2023-04-25T17:01:45;8.10;;;1.10;;
25127;SDS011;13107;51.304;6.866;2023-04-25T17:05:50;4.20;;;1.10;;
25127;SDS011;13107;51.304;6.866;2023-04-25T17:09:54;6.03;;;1.25;;
25127;SDS011;13107;51.304;6.866;2023-04-25T17:13:56;3.97;;;0.80;;
25127;SDS011;13107;51.304;6.866;2023-04-25T17:17:58;4.97;;;0.93;;
25127;SDS011;13107;51.304;6.866;2023-04-25T17:22:03;4.85;;;0.88;;
25127;SDS011;13107;51.304;6.866;2023-04-25T17:26:04;2.05;;;0.82;;
25127;SDS011;13107;51.304;6.866;2023-04-25T17:30:06;4.65;;;1.10;;
25127;SDS011;13107;51.304;6.866;2023-04-25T17:34:08;3.40;;;0.75;;
25127;SDS011;13107;51.304;6.866;2023-04-25T17:38:12;6.05;;;1.10;;
25127;SDS011;13107;51.304;6.866;2023-04-25T17:42:15;4.75;;;0.77;;
25127;SDS011;13107;51.304;6.866;2023-04-25T17:46:16;5.62;;;1.20;;
25127;SDS011;13107;51.304;6.866;2023-04-25T17:50:18;5.03;;;0.98;;
25127;SDS011;13107;51.304;6.866;2023-04-25T17:54:20;5.95;;;1.20;;
25127;SDS011;13107;51.304;6.866;2023-04-25T17:58:22;5.95;;;1.45;;
25127;SDS011;13107;51.304;6.866;2023-04-25T18:02:25;5.35;;;1.33;;
25127;SDS011;13107;51.304;6.866;2023-04-25T18:06:27;5.10;;;0.93;;
25127;SDS011;13107;51.304;6.866;2023-04-25T18:10:30;3.37;;;1.27;;
25127;SDS011;13107;51.304;6.866;2023-04-25T18:14:32;6.50;;;1.20;;
25127;SDS011;13107;51.304;6.866;2023-04-25T18:18:35;4.07;;;1.30;;
25127;SDS011;13107;51.304;6.866;2023-04-25T18:22:38;3.33;;;0.93;;
25127;SDS011;13107;51.304;6.866;2023-04-25T18:26:39;5.57;;;1.30;;
25127;SDS011;13107;51.304;6.866;2023-04-25T18:30:42;4.22;;;1.10;;
25127;SDS011;13107;51.304;6.866;2023-04-25T18:34:44;7.45;;;1.33;;
25127;SDS011;13107;51.304;6.866;2023-04-25T18:38:48;5.75;;;0.85;;
25127;SDS011;13107;51.304;6.866;2023-04-25T18:42:57;5.62;;;1.10;;
25127;SDS011;13107;51.304;6.866;2023-04-25T18:46:59;3.53;;;1.05;;
25127;SDS011;13107;51.304;6.866;2023-04-25T18:51:00;6.18;;;1.12;;
25127;SDS011;13107;51.304;6.866;2023-04-25T18:55:02;3.03;;;0.90;;
25127;SDS011;13107;51.304;6.866;2023-04-25T18:59:05;2.95;;;0.80;;
25127;SDS011;13107;51.304;6.866;2023-04-25T19:03:06;7.80;;;2.03;;
25127;SDS011;13107;51.304;6.866;2023-04-25T19:07:08;3.95;;;1.20;;
25127;SDS011;13107;51.304;6.866;2023-04-25T19:11:11;5.97;;;1.27;;
25127;SDS011;13107;51.304;6.866;2023-04-25T19:15:21;5.53;;;1.20;;
25127;SDS011;13107;51.304;6.866;2023-04-25T19:19:23;2.70;;;0.85;;
25127;SDS011;13107;51.304;6.866;2023-04-25T19:23:25;7.97;;;1.12;;
25127;SDS011;13107;51.304;6.866;2023-04-25T19:27:26;9.48;;;1.73;;
25127;SDS011;13107;51.304;6.866;2023-04-25T19:31:28;5.35;;;1.62;;
25127;SDS011;13107;51.304;6.866;2023-04-25T19:35:30;6.65;;;1.50;;
25127;SDS011;13107;51.304;6.866;2023-04-25T19:39:33;8.02;;;1.80;;
25127;SDS011;13107;51.304;6.866;2023-04-25T19:43:35;3.67;;;1.00;;
25127;SDS011;13107;51.304;6.866;2023-04-25T19:47:37;9.02;;;1.50;;
25127;SDS011;13107;51.304;6.866;2023-04-25T19:51:39;5.68;;;1.33;;
25127;SDS011;13107;51.304;6.866;2023-04-25T19:55:41;5.37;;;1.35;;
25127;SDS011;13107;51.304;6.866;2023-04-25T19:59:44;9.55;;;1.60;;
25127;SDS011;13107;51.304;6.866;2023-04-25T20:03:48;7.28;;;1.50;;
25127;SDS011;13107;51.304;6.866;2023-04-25T20:07:53;3.92;;;1.10;;
25127;SDS011;13107;51.304;6.866;2023-04-25T20:11:55;4.78;;;1.35;;
25127;SDS011;13107;51.304;6.866;2023-04-25T20:15:56;9.80;;;1.67;;
25127;SDS011;13107;51.304;6.866;2023-04-25T20:20:02;8.18;;;1.40;;
25127;SDS011;13107;51.304;6.866;2023-04-25T20:24:06;3.25;;;1.35;;
25127;SDS011;13107;51.304;6.866;2023-04-25T20:28:08;4.35;;;1.58;;
25127;SDS011;13107;51.304;6.866;2023-04-25T20:32:10;4.40;;;1.40;;
25127;SDS011;13107;51.304;6.866;2023-04-25T20:36:12;7.10;;;1.77;;
25127;SDS011;13107;51.304;6.866;2023-04-25T20:40:15;6.68;;;1.35;;
25127;SDS011;13107;51.304;6.866;2023-04-25T20:44:17;5.03;;;1.60;;
25127;SDS011;13107;51.304;6.866;2023-04-25T20:48:20;8.13;;;1.70;;
25127;SDS011;13107;51.304;6.866;2023-04-25T20:52:22;9.05;;;1.60;;
25127;SDS011;13107;51.304;6.866;2023-04-25T20:56:24;7.97;;;1.67;;
25127;SDS011;13107;51.304;6.866;2023-04-25T21:00:26;6.22;;;1.65;;
25127;SDS011;13107;51.304;6.866;2023-04-25T21:04:29;7.87;;;1.48;;
25127;SDS011;13107;51.304;6.866;2023-04-25T21:08:31;11.20;;;2.22;;
25127;SDS011;13107;51.304;6.866;2023-04-25T21:12:33;3.95;;;1.52;;
25127;SDS011;13107;51.304;6.866;2023-04-25T21:16:36;4.40;;;1.35;;
25127;SDS011;13107;51.304;6.866;2023-04-25T21:20:38;8.40;;;1.83;;
25127;SDS011;13107;51.304;6.866;2023-04-25T21:24:40;8.75;;;1.60;;
25127;SDS011;13107;51.304;6.866;2023-04-25T21:28:42;6.03;;;1.40;;
25127;SDS011;13107;51.304;6.866;2023-04-25T21:32:44;6.22;;;1.73;;
25127;SDS011;13107;51.304;6.866;2023-04-25T21:36:46;6.60;;;1.40;;
25127;SDS011;13107;51.304;6.866;2023-04-25T21:40:48;4.85;;;1.40;;
25127;SDS011;13107;51.304;6.866;2023-04-25T21:44:50;9.57;;;1.50;;
25127;SDS011;13107;51.304;6.866;2023-04-25T21:48:51;5.22;;;1.70;;
25127;SDS011;13107;51.304;6.866;2023-04-25T21:52:54;4.15;;;1.12;;
25127;SDS011;13107;51.304;6.866;2023-04-25T21:56:59;8.43;;;1.80;;
25127;SDS011;13107;51.304;6.866;2023-04-25T22:01:00;9.25;;;1.55;;
25127;SDS011;13107;51.304;6.866;2023-04-25T22:05:03;5.55;;;1.42;;
25127;SDS011;13107;51.304;6.866;2023-04-25T22:09:05;7.75;;;1.17;;
25127;SDS011;13107;51.304;6.866;2023-04-25T22:13:06;7.85;;;1.30;;
25127;SDS011;13107;51.304;6.866;2023-04-25T22:17:08;5.97;;;1.30;;
25127;SDS011;13107;51.304;6.866;2023-04-25T22:21:12;5.60;;;1.73;;
25127;SDS011;13107;51.304;6.866;2023-04-25T22:25:14;8.05;;;1.65;;
25127;SDS011;13107;51.304;6.866;2023-04-25T22:29:15;7.03;;;1.45;;
25127;SDS011;13107;51.304;6.866;2023-04-25T22:33:17;3.20;;;1.37;;
25127;SDS011;13107;51.304;6.866;2023-04-25T22:37:19;1.75;;;1.10;;
25127;SDS011;13107;51.304;6.866;2023-04-25T22:41:21;6.15;;;1.48;;
25127;SDS011;13107;51.304;6.866;2023-04-25T22:45:23;7.55;;;1.50;;
25127;SDS011;13107;51.304;6.866;2023-04-25T22:49:25;7.72;;;1.30;;
25127;SDS011;13107;51.304;6.866;2023-04-25T22:53:27;3.67;;;1.58;;
25127;SDS011;13107;51.304;6.866;2023-04-25T22:57:29;2.50;;;1.60;;
25127;SDS011;13107;51.304;6.866;2023-04-25T23:01:32;6.68;;;1.30;;
25127;SDS011;13107;51.304;6.866;2023-04-25T23:05:34;7.57;;;1.73;;
25127;SDS011;13107;51.304;6.866;2023-04-25T23:09:35;4.25;;;1.60;;
25127;SDS011;13107;51.304;6.866;2023-04-25T23:13:37;4.35;;;1.55;;
25127;SDS011;13107;51.304;6.866;2023-04-25T23:17:39;5.15;;;1.60;;
25127;SDS011;13107;51.304;6.866;2023-04-25T23:21:42;4.85;;;1.75;;
25127;SDS011;13107;51.304;6.866;2023-04-25T23:25:43;3.83;;;1.40;;
25127;SDS011;13107;51.304;6.866;2023-04-25T23:29:52;5.35;;;1.52;;
25127;SDS011;13107;51.304;6.866;2023-04-25T23:33:55;4.40;;;1.60;;
25127;SDS011;13107;51.304;6.866;2023-04-25T23:37:57;3.95;;;1.55;;
25127;SDS011;13107;51.304;6.866;2023-04-25T23:41:58;5.45;;;1.50;;
25127;SDS011;13107;51.304;6.866;2023-04-25T23:46:00;5.55;;;1.60;;
25127;SDS011;13107;51.304;6.866;2023-04-25T23:50:02;5.70;;;1.90;;
25127;SDS011;13107;51.304;6.866;2023-04-25T23:54:04;6.00;;;1.58;;
25127;SDS011;13107;51.304;6.866;2023-04-25T23:58:06;4.22;;;1.60;;
